createdAt,value
2023-05-10T00:00:21.551Z,3.20
2023-05-10T00:02:53.935Z,2.92
2023-05-10T00:05:23.684Z,2.92
2023-05-10T00:07:53.216Z,3.78
2023-05-10T00:10:22.689Z,2.90
2023-05-10T00:12:52.247Z,3.13
2023-05-10T00:15:21.710Z,3.10
2023-05-10T00:17:53.826Z,2.95
2023-05-10T00:20:23.332Z,2.88
2023-05-10T00:22:52.740Z,3.22
2023-05-10T00:25:22.666Z,2.95
2023-05-10T00:27:52.277Z,2.97
2023-05-10T00:30:21.854Z,3.13
2023-05-10T00:32:54.100Z,3.10
2023-05-10T00:35:23.630Z,3.40
2023-05-10T00:37:53.203Z,3.00
2023-05-10T00:40:24.528Z,3.20
2023-05-10T00:42:58.513Z,3.38
2023-05-10T00:45:28.466Z,3.17
2023-05-10T00:48:01.070Z,3.05
2023-05-10T00:53:00.499Z,3.20
2023-05-10T00:55:30.352Z,3.33
2023-05-10T00:57:59.836Z,3.15
2023-05-10T01:00:30.690Z,3.42
2023-05-10T01:03:02.947Z,3.05
2023-05-10T01:05:33.016Z,3.20
2023-05-10T01:08:02.474Z,3.40
2023-05-10T01:10:34.282Z,3.70
2023-05-10T01:13:04.268Z,3.60
2023-05-10T01:15:34.865Z,3.28
2023-05-10T01:18:07.452Z,3.40
2023-05-10T01:20:46.905Z,3.50
2023-05-10T01:23:39.615Z,3.60
2023-05-10T01:26:28.416Z,3.72
2023-05-10T01:29:22.589Z,3.70
2023-05-10T01:32:19.985Z,4.85
2023-05-10T01:35:00.893Z,3.83
2023-05-10T01:37:43.206Z,3.70
2023-05-10T01:40:29.730Z,3.70
2023-05-10T01:43:04.615Z,3.47
2023-05-10T01:45:37.888Z,3.55
2023-05-10T01:48:13.422Z,3.97
2023-05-10T01:50:47.575Z,3.90
2023-05-10T01:53:22.527Z,3.78
2023-05-10T01:55:56.191Z,3.90
2023-05-10T01:58:31.028Z,4.05
2023-05-10T02:01:03.770Z,3.88
2023-05-10T02:03:38.307Z,4.25
2023-05-10T02:06:09.525Z,3.70
2023-05-10T02:08:40.052Z,4.00
2023-05-10T02:11:10.483Z,4.60
2023-05-10T02:13:41.432Z,4.20
2023-05-10T02:16:12.128Z,4.18
2023-05-10T02:18:45.173Z,4.57
2023-05-10T02:21:16.094Z,4.97
2023-05-10T02:23:46.921Z,4.13
2023-05-10T02:26:17.732Z,4.15
2023-05-10T02:28:48.452Z,4.40
2023-05-10T02:31:18.876Z,4.75
2023-05-10T02:33:52.708Z,4.07
2023-05-10T02:36:24.858Z,4.68
2023-05-10T02:38:56.561Z,4.35
2023-05-10T02:41:28.854Z,4.20
2023-05-10T02:44:03.722Z,3.92
2023-05-10T02:46:34.196Z,4.87
2023-05-10T02:49:07.866Z,4.57
2023-05-10T02:51:41.172Z,4.53
2023-05-10T02:54:15.747Z,5.20
2023-05-10T02:56:50.946Z,5.15
2023-05-10T02:59:20.775Z,4.63
2023-05-10T03:01:50.435Z,4.63
2023-05-10T03:04:22.736Z,4.03
2023-05-10T03:06:52.361Z,4.53
2023-05-10T03:09:22.677Z,5.07
2023-05-10T03:12:00.472Z,5.05
2023-05-10T03:14:47.159Z,5.43
2023-05-10T03:17:21.700Z,4.78
2023-05-10T03:19:58.160Z,5.38
2023-05-10T03:22:34.354Z,5.53
2023-05-10T03:25:07.551Z,5.85
2023-05-10T03:27:40.215Z,5.20
2023-05-10T03:30:12.438Z,4.60
2023-05-10T03:32:42.366Z,5.43
2023-05-10T03:35:16.906Z,5.35
2023-05-10T03:37:48.024Z,5.57
2023-05-10T03:40:18.218Z,5.53
2023-05-10T03:42:48.064Z,4.85
2023-05-10T03:45:17.560Z,5.38
2023-05-10T03:47:47.058Z,5.22
2023-05-10T03:50:19.593Z,6.03
2023-05-10T03:55:18.566Z,4.82
2023-05-10T03:57:50.647Z,5.78
2023-05-10T04:00:20.577Z,5.32
2023-05-10T04:02:53.879Z,5.65
2023-05-10T04:05:26.327Z,5.18
2023-05-10T04:10:25.665Z,5.45
2023-05-10T04:12:55.118Z,5.30
2023-05-10T04:15:24.661Z,5.60
2023-05-10T04:17:54.826Z,5.83
2023-05-10T04:20:27.012Z,5.53
2023-05-10T04:22:56.699Z,5.57
2023-05-10T04:25:26.260Z,5.47
2023-05-10T04:27:55.808Z,6.00
2023-05-10T04:30:25.212Z,5.93
2023-05-10T04:32:54.652Z,5.77
2023-05-10T04:35:27.296Z,6.07
2023-05-10T04:40:26.008Z,5.90
2023-05-10T04:42:55.591Z,5.43
2023-05-10T04:45:25.236Z,5.40
2023-05-10T04:47:54.695Z,5.67
2023-05-10T04:50:27.012Z,6.30
2023-05-10T04:52:56.605Z,6.00
2023-05-10T04:55:26.184Z,5.90
2023-05-10T04:57:57.851Z,6.43
2023-05-10T05:00:27.395Z,5.20
2023-05-10T05:02:56.906Z,6.17
2023-05-10T05:05:29.030Z,6.10
2023-05-10T05:07:58.484Z,6.40
2023-05-10T05:10:27.931Z,6.40
2023-05-10T05:12:57.408Z,6.20
2023-05-10T05:15:26.956Z,5.80
2023-05-10T05:17:56.558Z,5.97
2023-05-10T05:20:26.048Z,6.37
2023-05-10T05:22:58.182Z,5.83
2023-05-10T05:25:27.644Z,5.85
2023-05-10T05:27:57.168Z,6.17
2023-05-10T05:30:26.610Z,5.43
2023-05-10T05:32:56.171Z,6.60
2023-05-10T05:35:25.700Z,6.03
2023-05-10T05:37:57.744Z,5.60
2023-05-10T05:40:27.170Z,5.75
2023-05-10T05:42:56.595Z,5.83
2023-05-10T05:45:26.018Z,6.57
2023-05-10T05:47:55.514Z,5.87
2023-05-10T05:50:25.067Z,5.93
2023-05-10T05:52:54.514Z,6.00
2023-05-10T05:55:27.020Z,5.27
2023-05-10T05:57:56.499Z,5.72
2023-05-10T06:00:25.971Z,4.80
2023-05-10T06:02:55.518Z,5.60
2023-05-10T06:05:25.029Z,5.27
2023-05-10T06:07:54.473Z,5.20
2023-05-10T06:10:26.607Z,5.43
2023-05-10T06:12:56.219Z,5.28
2023-05-10T06:15:25.783Z,5.80
2023-05-10T06:17:55.348Z,5.43
2023-05-10T06:20:24.803Z,5.37
2023-05-10T06:22:54.309Z,5.97
2023-05-10T06:25:26.432Z,5.03
2023-05-10T06:27:58.884Z,5.18
2023-05-10T06:30:30.328Z,5.68
2023-05-10T06:33:00.386Z,5.90
2023-05-10T06:35:30.665Z,5.77
2023-05-10T06:38:00.231Z,6.40
2023-05-10T06:40:32.499Z,5.57
2023-05-10T06:43:02.020Z,6.00
2023-05-10T06:45:31.572Z,6.43
2023-05-10T06:48:01.055Z,5.53
2023-05-10T06:50:30.759Z,6.27
2023-05-10T06:53:00.314Z,6.27
2023-05-10T06:55:32.543Z,5.90
2023-05-10T06:58:02.030Z,6.30
2023-05-10T07:00:31.706Z,6.27
2023-05-10T07:03:01.236Z,5.30
2023-05-10T07:05:31.164Z,5.43
2023-05-10T07:08:00.974Z,5.93
2023-05-10T07:10:33.107Z,5.68
2023-05-10T07:13:02.795Z,5.85
2023-05-10T07:15:32.764Z,5.65
2023-05-10T07:18:02.368Z,5.72
2023-05-10T07:20:31.906Z,5.53
2023-05-10T07:23:01.520Z,5.53
2023-05-10T07:25:33.585Z,5.55
2023-05-10T07:28:02.999Z,5.82
2023-05-10T07:30:32.496Z,5.93
2023-05-10T07:33:02.062Z,6.10
2023-05-10T07:35:31.637Z,5.57
2023-05-10T07:38:01.724Z,6.00
2023-05-10T07:40:33.885Z,5.72
2023-05-10T07:43:03.898Z,5.60
2023-05-10T07:45:33.601Z,5.67
2023-05-10T07:48:05.653Z,6.13
2023-05-10T07:50:35.285Z,5.72
2023-05-10T07:53:04.717Z,5.85
2023-05-10T07:55:37.045Z,5.67
2023-05-10T07:58:06.484Z,5.95
2023-05-10T08:00:36.344Z,5.53
2023-05-10T08:03:05.898Z,5.20
2023-05-10T08:05:35.873Z,5.00
2023-05-10T08:08:05.375Z,4.90
2023-05-10T08:10:37.440Z,3.70
2023-05-10T08:13:07.214Z,4.30
2023-05-10T08:15:36.678Z,3.07
2023-05-10T08:18:06.282Z,3.78
2023-05-10T08:20:35.755Z,3.17
2023-05-10T08:23:07.218Z,2.77
2023-05-10T08:25:39.258Z,2.50
2023-05-10T08:28:09.994Z,2.58
2023-05-10T08:30:41.308Z,2.20
2023-05-10T08:33:10.774Z,1.70
2023-05-10T08:35:40.331Z,1.90
2023-05-10T08:38:09.767Z,1.20
2023-05-10T08:40:44.286Z,1.60
2023-05-10T08:43:16.543Z,1.30
2023-05-10T08:45:48.953Z,1.58
2023-05-10T08:48:19.281Z,1.50
2023-05-10T08:50:50.132Z,1.92
2023-05-10T08:53:20.406Z,2.20
2023-05-10T08:55:52.500Z,1.80
2023-05-10T08:58:23.223Z,1.90
2023-05-10T09:00:54.693Z,2.00
2023-05-10T09:03:24.314Z,2.08
2023-05-10T09:05:53.815Z,1.55
2023-05-10T09:08:26.469Z,2.30
2023-05-10T09:13:28.688Z,2.50
2023-05-10T09:16:02.138Z,1.60
2023-05-10T09:18:36.560Z,1.83
2023-05-10T09:21:06.544Z,2.08
2023-05-10T09:23:36.029Z,1.85
2023-05-10T09:26:08.896Z,2.33
2023-05-10T09:28:53.589Z,2.10
2023-05-10T09:31:23.377Z,2.20
2023-05-10T09:33:54.227Z,2.30
2023-05-10T09:36:23.754Z,2.63
2023-05-10T09:38:55.963Z,2.75
2023-05-10T09:41:29.226Z,2.75
2023-05-10T09:43:59.925Z,2.60
2023-05-10T09:46:29.596Z,2.67
2023-05-10T09:48:59.229Z,2.40
2023-05-10T09:51:29.220Z,2.53
2023-05-10T09:54:13.765Z,2.22
2023-05-10T09:56:46.455Z,2.35
2023-05-10T10:01:46.000Z,2.70
2023-05-10T10:04:15.700Z,2.75
2023-05-10T10:06:45.719Z,2.92
2023-05-10T10:09:15.205Z,2.70
2023-05-10T10:11:47.283Z,2.80
2023-05-10T10:14:16.798Z,3.35
2023-05-10T10:16:55.710Z,3.70
2023-05-10T10:19:37.246Z,4.63
2023-05-10T10:22:07.367Z,5.65
2023-05-10T10:24:36.962Z,3.90
2023-05-10T10:27:19.054Z,3.63
2023-05-10T10:30:03.161Z,2.83
2023-05-10T10:32:41.982Z,2.67
2023-05-10T10:35:12.685Z,2.72
2023-05-10T10:37:47.359Z,2.58
2023-05-10T10:40:32.824Z,3.00
2023-05-10T10:43:27.831Z,2.88
2023-05-10T10:46:13.754Z,3.30
2023-05-10T10:48:43.635Z,2.80
2023-05-10T10:51:13.163Z,3.10
2023-05-10T10:53:43.981Z,3.10
2023-05-10T10:56:16.638Z,3.05
2023-05-10T11:01:24.697Z,2.78
2023-05-10T11:04:21.466Z,2.88
2023-05-10T11:06:51.137Z,2.72
2023-05-10T11:09:21.875Z,2.72
2023-05-10T11:11:56.616Z,2.88
2023-05-10T11:14:29.334Z,3.00
2023-05-10T11:19:31.646Z,3.13
2023-05-10T11:22:16.692Z,2.85
2023-05-10T11:25:00.388Z,2.85
2023-05-10T11:27:30.225Z,2.95
2023-05-10T11:30:04.289Z,3.60
2023-05-10T11:32:34.720Z,3.03
2023-05-10T11:35:11.011Z,3.70
2023-05-10T11:37:42.512Z,3.35
2023-05-10T11:40:12.747Z,3.28
2023-05-10T11:42:42.505Z,3.17
2023-05-10T11:45:14.949Z,3.53
2023-05-10T11:47:44.714Z,3.55
2023-05-10T11:50:15.221Z,3.47
2023-05-10T11:52:44.963Z,4.03
2023-05-10T11:55:16.062Z,3.22
2023-05-10T11:57:47.027Z,3.65
2023-05-10T12:00:19.934Z,3.45
2023-05-10T12:02:50.132Z,3.17
2023-05-10T12:05:20.524Z,4.03
2023-05-10T12:07:49.975Z,3.38
2023-05-10T12:10:19.752Z,4.63
2023-05-10T12:12:51.225Z,3.95
2023-05-10T12:15:25.430Z,4.10
2023-05-10T12:17:55.865Z,3.40
2023-05-10T12:20:27.270Z,3.88
2023-05-10T12:23:00.362Z,3.30
2023-05-10T12:25:34.390Z,4.10
2023-05-10T12:28:07.526Z,4.10
2023-05-10T12:30:40.671Z,4.40
2023-05-10T12:33:16.203Z,4.32
2023-05-10T12:35:50.312Z,3.60
2023-05-10T12:38:31.875Z,4.10
2023-05-10T12:41:02.055Z,4.07
2023-05-10T12:43:32.032Z,3.95
2023-05-10T12:46:08.710Z,4.20
2023-05-10T12:48:38.933Z,4.22
2023-05-10T12:51:10.522Z,3.85
2023-05-10T12:53:41.501Z,4.67
2023-05-10T12:56:12.944Z,4.15
2023-05-10T12:58:42.640Z,4.53
2023-05-10T13:01:14.787Z,4.07
2023-05-10T13:03:44.312Z,4.13
2023-05-10T13:06:14.582Z,4.20
2023-05-10T13:08:44.069Z,4.45
2023-05-10T13:11:17.623Z,3.70
2023-05-10T13:13:47.109Z,3.30
2023-05-10T13:16:19.257Z,4.13
2023-05-10T13:18:48.879Z,3.70
2023-05-10T13:21:18.415Z,4.57
2023-05-10T13:23:47.894Z,4.20
2023-05-10T13:26:17.390Z,3.67
2023-05-10T13:28:47.516Z,3.90
2023-05-10T13:31:19.562Z,3.83
2023-05-10T13:33:49.028Z,4.10
2023-05-10T13:36:18.482Z,3.42
2023-05-10T13:38:47.915Z,3.13
2023-05-10T13:41:17.370Z,3.28
2023-05-10T13:43:47.080Z,3.20
2023-05-10T13:46:19.213Z,3.10
2023-05-10T13:48:48.741Z,3.78
2023-05-10T13:51:18.196Z,3.45
2023-05-10T13:53:48.165Z,3.83
2023-05-10T13:56:17.740Z,3.60
2023-05-10T13:58:47.567Z,3.60
2023-05-10T14:01:19.729Z,3.70
2023-05-10T14:03:49.366Z,3.60
2023-05-10T14:06:19.000Z,3.92
2023-05-10T14:08:48.473Z,3.67
2023-05-10T14:11:18.638Z,3.75
2023-05-10T14:13:48.126Z,3.47
2023-05-10T14:16:21.229Z,3.17
2023-05-10T14:18:50.990Z,3.90
2023-05-10T14:21:20.650Z,4.45
2023-05-10T14:23:50.122Z,6.07
2023-05-10T14:26:19.695Z,5.78
2023-05-10T14:28:49.227Z,5.75
2023-05-10T14:31:21.605Z,5.20
2023-05-10T14:33:51.241Z,6.50
2023-05-10T14:36:21.116Z,7.00
2023-05-10T14:38:50.631Z,5.88
2023-05-10T14:41:20.199Z,7.60
2023-05-10T14:43:49.768Z,7.25
2023-05-10T14:46:21.993Z,6.60
2023-05-10T14:48:51.516Z,7.55
2023-05-10T14:51:22.884Z,6.90
2023-05-10T14:53:52.877Z,6.63
2023-05-10T14:56:22.619Z,7.28
2023-05-10T14:58:53.767Z,7.60
2023-05-10T15:01:26.374Z,8.37
